Time;durP1;ratioP1;P1;durP2;ratioP2;P2;SDS_P1;SDS_P2;PMS_P1;PMS_P2;Temp;Humidity;BMP_temperature;BMP_pressure;BME280_temperature;BME280_humidity;BME280_pressure;Samples;Min_cycle;Max_cycle;Signal;HPM_P1;HPM_P2
2021/06/01 00:00:09;;;;;;;19.38;13.63;;;;;;;25.82;34.89;101376.75;5075004;28;20494;-73
2021/06/01 00:02:35;;;;;;;17.27;13.10;;;;;;;25.82;34.77;101370.34;5076193;28;20021;-73
2021/06/01 00:05:03;;;;;;;18.55;14.60;;;;;;;25.82;34.46;101371.13;5074827;28;20021;-73
2021/06/01 00:07:28;;;;;;;15.55;13.52;;;;;;;25.83;34.77;101375.53;5076129;28;20029;-74
2021/06/01 00:09:54;;;;;;;17.52;13.80;;;;;;;25.83;34.93;101367.13;5076114;28;20028;-73
2021/06/01 00:12:20;;;;;;;16.20;13.90;;;;;;;25.86;34.62;101368.34;5076144;28;20035;-74
2021/06/01 00:14:45;;;;;;;18.98;14.15;;;;;;;25.77;34.68;101362.34;5075971;28;20020;-73
2021/06/01 00:17:11;;;;;;;17.83;14.18;;;;;;;25.79;34.75;101357.16;5075589;28;20048;-73
2021/06/01 00:19:36;;;;;;;19.08;13.63;;;;;;;25.75;35.06;101359.94;5075863;28;20379;-73
2021/06/01 00:22:02;;;;;;;16.80;14.00;;;;;;;25.81;34.70;101354.75;5075766;28;20028;-73
2021/06/01 00:24:28;;;;;;;18.27;14.50;;;;;;;25.74;35.34;101352.75;5074469;28;20016;-73
2021/06/01 00:26:54;;;;;;;17.73;13.20;;;;;;;25.72;35.06;101344.78;5075790;28;20024;-73
2021/06/01 00:29:19;;;;;;;18.10;14.80;;;;;;;25.76;35.16;101341.16;5075724;28;20527;-73
2021/06/01 00:31:45;;;;;;;23.25;14.05;;;;;;;25.67;35.29;101342.34;5075682;28;20060;-72
2021/06/01 00:34:11;;;;;;;19.45;14.48;;;;;;;25.63;35.12;101351.97;5075626;28;20028;-73
2021/06/01 00:36:36;;;;;;;18.50;13.80;;;;;;;25.46;35.59;101354.34;5075531;28;20024;-73
2021/06/01 00:39:04;;;;;;;21.98;15.02;;;;;;;25.49;35.46;101351.97;5075526;28;20035;-73
2021/06/01 00:41:30;;;;;;;24.10;15.00;;;;;;;25.28;36.29;101347.97;5075537;28;20035;-72
2021/06/01 00:43:55;;;;;;;17.10;14.60;;;;;;;25.33;35.86;101347.56;5075235;28;20028;-72
2021/06/01 00:46:21;;;;;;;19.38;14.38;;;;;;;25.30;36.03;101348.34;5074190;28;20642;-73
2021/06/01 00:48:47;;;;;;;21.58;15.30;;;;;;;25.31;36.03;101343.56;5075130;28;20035;-74
2021/06/01 00:51:13;;;;;;;21.88;15.10;;;;;;;25.24;36.28;101346.34;5075329;28;20036;-73
2021/06/01 00:53:38;;;;;;;19.90;14.63;;;;;;;25.20;36.69;101339.97;5075193;28;20028;-73
2021/06/01 00:56:05;;;;;;;22.45;14.65;;;;;;;25.08;36.48;101339.16;5073492;28;20387;-73
2021/06/01 00:58:31;;;;;;;24.08;15.27;;;;;;;25.01;37.04;101336.31;5074220;28;20036;-73
2021/06/01 01:03:35;;;;;;;22.55;14.20;;;;;;;24.89;37.37;101333.91;5075201;28;20025;-73
2021/06/01 01:06:06;;;;;;;20.17;15.23;;;;;;;24.87;37.19;101339.13;5074588;28;20035;-72
2021/06/01 01:11:18;;;;;;;21.00;14.23;;;;;;;24.90;37.05;101338.31;5074929;28;20016;-73
2021/06/01 01:13:48;;;;;;;21.58;13.77;;;;;;;24.88;37.31;101341.50;5074835;28;20043;-72
2021/06/01 01:16:16;;;;;;;16.52;13.43;;;;;;;24.81;37.42;101329.50;5075088;28;20383;-72
2021/06/01 01:18:47;;;;;;;19.70;15.27;;;;;;;24.94;37.57;101327.94;5074482;28;20041;-72
2021/06/01 01:21:21;;;;;;;17.02;15.00;;;;;;;24.78;37.62;101330.28;5074718;28;20066;-73
2021/06/01 01:24:02;;;;;;;19.10;14.25;;;;;;;24.84;37.72;101325.91;5073335;28;20048;-72
2021/06/01 01:27:10;;;;;;;20.08;15.35;;;;;;;24.72;38.08;101323.50;5074650;28;20085;-72
2021/06/01 01:29:38;;;;;;;18.60;15.77;;;;;;;24.78;37.81;101319.91;5074564;28;20055;-73
2021/06/01 01:32:08;;;;;;;22.92;15.20;;;;;;;24.87;37.24;101328.72;5074502;28;20100;-72
2021/06/01 01:34:34;;;;;;;22.10;16.73;;;;;;;24.90;37.35;101335.50;5074543;28;20454;-72
2021/06/01 01:37:01;;;;;;;19.33;16.48;;;;;;;25.00;37.20;101326.34;5074055;28;20476;-73
2021/06/01 01:39:34;;;;;;;17.38;15.48;;;;;;;24.98;37.19;101333.53;5073141;28;20052;-73
2021/06/01 01:42:01;;;;;;;22.80;17.23;;;;;;;24.94;37.20;101333.53;5055116;28;20040;-72
2021/06/01 01:44:29;;;;;;;20.13;16.65;;;;;;;24.82;37.51;101329.09;5054517;28;20029;-72
2021/06/01 01:48:58;;;;;;;19.73;16.50;;;;;;;24.88;37.30;101332.31;5054179;28;20029;-73
2021/06/01 01:49:50;;;;;;;22.35;16.17;;;;;;;24.87;37.39;101333.53;5054289;28;20029;-73
2021/06/01 01:52:16;;;;;;;27.05;16.70;;;;;;;24.79;37.59;101329.13;5054173;28;20055;-73
2021/06/01 01:54:42;;;;;;;21.10;15.23;;;;;;;24.87;37.33;101334.31;5052877;28;20449;-72
2021/06/01 01:57:12;;;;;;;18.05;15.80;;;;;;;24.87;37.43;101328.72;5052695;28;20123;-72
2021/06/01 01:59:38;;;;;;;23.30;15.98;;;;;;;24.90;37.38;101330.72;5054282;28;20029;-72
2021/06/01 02:02:09;;;;;;;20.92;15.82;;;;;;;24.92;37.42;101339.50;5053898;28;20017;-73
2021/06/01 02:04:35;;;;;;;16.02;13.45;;;;;;;24.95;37.16;101335.13;5052717;28;20504;-72
2021/06/01 02:07:01;;;;;;;21.00;15.68;;;;;;;24.96;36.71;101335.94;5053928;28;20388;-73
2021/06/01 02:09:27;;;;;;;20.90;14.52;;;;;;;24.95;37.10;101334.34;5053559;28;20029;-73
2021/06/01 02:11:53;;;;;;;20.25;15.82;;;;;;;24.95;37.20;101337.13;5053787;28;20021;-73
2021/06/01 02:14:20;;;;;;;17.20;14.95;;;;;;;24.97;36.79;101329.94;5053640;28;20056;-72
2021/06/01 02:16:46;;;;;;;19.42;15.35;;;;;;;24.99;36.94;101329.53;5335134;23;20048;-74
2021/06/01 02:19:16;;;;;;;20.73;15.75;;;;;;;24.98;37.00;101330.72;5053399;28;20700;-74
2021/06/01 02:22:17;;;;;;;21.45;15.27;;;;;;;24.94;36.56;101332.72;5035781;28;20037;-75
2021/06/01 02:24:49;;;;;;;19.10;15.13;;;;;;;24.94;36.53;101333.53;5035720;28;20371;-74
2021/06/01 02:27:25;;;;;;;18.38;13.93;;;;;;;24.90;36.62;101327.94;5053800;28;20056;-74
2021/06/01 02:30:05;;;;;;;24.13;14.80;;;;;;;24.94;36.71;101329.91;5053777;28;20028;-74
2021/06/01 02:32:38;;;;;;;;;;;;;;;24.90;36.36;101327.94;5053864;28;20103;-75
2021/06/01 02:35:08;;;;;;;19.90;15.65;;;;;;;24.96;36.26;101327.53;5035615;28;19912;-74
2021/06/01 02:37:38;;;;;;;18.98;14.80;;;;;;;25.02;35.94;101335.16;5035460;28;20086;-74
2021/06/01 02:40:05;;;;;;;21.60;16.63;;;;;;;24.96;36.22;101331.13;5053365;28;20032;-74
2021/06/01 02:42:31;;;;;;;21.60;15.82;;;;;;;25.06;36.36;101332.38;5035445;28;20372;-74
2021/06/01 02:44:57;;;;;;;21.00;16.95;;;;;;;25.01;36.42;101333.53;5035548;28;20419;-74
2021/06/01 02:47:23;;;;;;;23.85;16.50;;;;;;;24.98;36.48;101339.91;5053270;28;20025;-74
2021/06/01 02:49:50;;;;;;;22.92;15.85;;;;;;;24.90;36.38;101330.72;5053251;28;20028;-74
2021/06/01 02:52:17;;;;;;;23.00;18.15;;;;;;;24.92;36.66;101321.94;5053204;28;20096;-75
2021/06/01 02:54:43;;;;;;;25.42;17.98;;;;;;;24.95;36.37;101331.53;5052167;28;20075;-74
2021/06/01 02:57:09;;;;;;;22.38;16.27;;;;;;;25.03;36.07;101321.97;5052174;28;20428;-74
2021/06/01 02:59:38;;;;;;;19.40;15.60;;;;;;;24.97;36.20;101320.75;5052937;28;20025;-74
2021/06/01 03:02:05;;;;;;;20.98;16.75;;;;;;;25.01;36.09;101315.94;5053168;28;20025;-74
2021/06/01 03:04:31;;;;;;;20.42;15.45;;;;;;;24.97;36.18;101326.34;5034979;28;20043;-74
2021/06/01 03:06:57;;;;;;;20.60;15.82;;;;;;;24.98;36.07;101322.34;5052546;28;20033;-74
2021/06/01 03:09:23;;;;;;;20.67;17.30;;;;;;;24.95;36.49;101323.16;5034982;28;20032;-74
2021/06/01 03:11:48;;;;;;;22.88;16.98;;;;;;;24.99;36.16;101326.75;5052571;28;20029;-75
2021/06/01 03:14:14;;;;;;;23.15;16.60;;;;;;;25.05;36.17;101327.97;5052773;28;20495;-74
2021/06/01 03:16:39;;;;;;;27.17;17.67;;;;;;;25.02;36.25;101317.56;5052523;28;20101;-74
2021/06/01 03:19:05;;;;;;;21.67;17.60;;;;;;;25.06;36.22;101312.81;5052308;28;20032;-75
2021/06/01 03:21:32;;;;;;;27.90;19.00;;;;;;;24.95;36.12;101325.94;5051937;28;20029;-74
2021/06/01 03:23:58;;;;;;;23.33;17.73;;;;;;;25.07;35.92;101319.97;5034650;28;20025;-74
2021/06/01 03:26:24;;;;;;;21.30;17.48;;;;;;;25.05;36.27;101322.38;5034661;28;20118;-74
2021/06/01 03:28:50;;;;;;;21.15;17.80;;;;;;;25.04;36.23;101321.59;5034563;28;20036;-75
2021/06/01 03:31:16;;;;;;;34.45;19.23;;;;;;;25.01;36.12;101322.34;5051942;28;20021;-74
2021/06/01 03:33:41;;;;;;;23.38;16.85;;;;;;;25.06;36.17;101318.38;5052364;28;20048;-74
2021/06/01 03:36:07;;;;;;;24.05;18.45;;;;;;;25.08;36.00;101318.78;5052472;28;20379;-75
2021/06/01 03:38:35;;;;;;;22.73;17.23;;;;;;;25.16;36.33;101320.38;5052625;28;20025;-74
2021/06/01 03:41:02;;;;;;;26.13;18.17;;;;;;;25.16;35.83;101307.22;5052436;28;20386;-74
2021/06/01 03:43:28;;;;;;;20.65;17.35;;;;;;;25.19;35.77;101314.00;5052420;28;20032;-74
2021/06/01 03:45:53;;;;;;;22.98;17.35;;;;;;;25.15;35.90;101313.19;5052372;28;20029;-74
2021/06/01 03:48:19;;;;;;;25.27;17.13;;;;;;;25.15;35.96;101310.41;5052311;28;20522;-73
2021/06/01 03:50:44;;;;;;;19.73;17.23;;;;;;;25.21;35.75;101303.22;5052310;28;20048;-74
2021/06/01 03:53:10;;;;;;;26.33;18.92;;;;;;;25.23;35.90;101309.19;5052345;28;20060;-74
2021/06/01 03:55:36;;;;;;;19.88;15.63;;;;;;;25.17;35.88;101305.22;5052313;28;20032;-74
2021/06/01 03:58:01;;;;;;;31.60;18.83;;;;;;;25.11;35.71;101309.63;5052166;28;20060;-74
2021/06/01 04:00:29;;;;;;;26.50;19.42;;;;;;;25.06;35.98;101307.22;5052585;28;20025;-74
2021/06/01 04:02:55;;;;;;;23.50;17.58;;;;;;;25.06;36.04;101307.22;5052246;28;20021;-74
2021/06/01 04:05:21;;;;;;;22.38;18.02;;;;;;;25.07;35.85;101304.00;5052475;28;20499;-74
2021/06/01 04:07:47;;;;;;;26.80;17.77;;;;;;;25.01;35.96;101304.75;5034137;28;20080;-74
2021/06/01 04:10:14;;;;;;;32.00;19.35;;;;;;;24.94;36.22;101296.38;5034366;28;20390;-74
2021/06/01 04:12:40;;;;;;;26.20;20.17;;;;;;;25.06;36.19;101302.41;5051873;28;20103;-74
2021/06/01 04:15:07;;;;;;;25.27;19.05;;;;;;;25.08;35.98;101308.41;5051831;28;20067;-74
2021/06/01 04:17:33;;;;;;;22.65;17.20;;;;;;;25.10;35.98;101313.63;5033883;28;20033;-74
2021/06/01 04:19:59;;;;;;;26.10;17.52;;;;;;;25.06;35.71;101310.00;5052061;28;20017;-74
2021/06/01 04:22:24;;;;;;;30.48;20.42;;;;;;;25.04;35.71;101316.00;5052063;28;20025;-75
2021/06/01 04:24:50;;;;;;;24.23;20.25;;;;;;;24.88;36.05;101313.56;5052012;28;20032;-74
2021/06/01 04:27:16;;;;;;;36.42;20.02;;;;;;;24.97;36.29;101315.16;5052182;28;20029;-74
2021/06/01 04:29:42;;;;;;;25.30;20.77;;;;;;;25.06;36.00;101312.81;5052126;28;20665;-74
2021/06/01 04:32:08;;;;;;;26.45;20.83;;;;;;;25.01;36.03;101311.16;5054366;28;20024;-74
2021/06/01 04:34:34;;;;;;;25.17;20.25;;;;;;;25.05;35.86;101319.59;5055845;28;20036;-74
2021/06/01 04:36:59;;;;;;;28.60;21.55;;;;;;;25.03;36.13;101328.38;5055641;28;20025;-74
2021/06/01 04:39:25;;;;;;;28.48;22.02;;;;;;;25.07;36.18;101319.97;5037674;28;20430;-75
2021/06/01 04:41:50;;;;;;;27.60;20.40;;;;;;;25.13;36.03;101322.00;5055679;28;20029;-75
2021/06/01 04:44:16;;;;;;;23.25;19.13;;;;;;;25.16;36.12;101323.19;5055509;28;20156;-74
2021/06/01 04:46:42;;;;;;;24.17;19.50;;;;;;;25.16;36.20;101321.22;5055409;28;20604;-74
2021/06/01 04:49:07;;;;;;;28.23;19.98;;;;;;;24.84;36.81;101325.91;5055451;28;20040;-74
2021/06/01 04:51:33;;;;;;;28.40;19.75;;;;;;;25.02;36.28;101334.34;5037478;28;20025;-74
2021/06/01 04:53:59;;;;;;;27.45;17.92;;;;;;;25.09;35.87;101331.56;5055305;28;20053;-74
2021/06/01 04:56:26;;;;;;;27.45;18.92;;;;;;;24.97;36.73;101331.94;5055379;28;20083;-74
2021/06/01 04:58:52;;;;;;;29.85;21.60;;;;;;;25.09;36.09;101346.38;5055105;28;20120;-75
2021/06/01 05:01:18;;;;;;;30.50;21.15;;;;;;;25.14;36.10;101328.38;5055161;28;20399;-74
2021/06/01 05:03:44;;;;;;;30.15;21.17;;;;;;;25.14;36.58;101326.38;5055172;28;20032;-74
2021/06/01 05:06:10;;;;;;;28.35;20.38;;;;;;;25.14;36.50;101325.59;5055134;28;20021;-74
2021/06/01 05:08:36;;;;;;;33.90;22.90;;;;;;;25.22;36.31;101331.97;5054907;28;20024;-74
2021/06/01 05:11:03;;;;;;;30.13;20.63;;;;;;;25.14;36.44;101326.38;5055218;28;20029;-74
2021/06/01 05:13:28;;;;;;;26.45;20.17;;;;;;;25.15;36.76;101324.38;5055224;28;20032;-74
2021/06/01 05:15:54;;;;;;;32.50;22.23;;;;;;;25.29;36.53;101326.38;5036886;28;20453;-74
2021/06/01 05:18:20;;;;;;;28.83;19.48;;;;;;;25.42;36.39;101322.00;5036978;28;20029;-74
2021/06/01 05:20:46;;;;;;;29.75;19.98;;;;;;;25.38;36.17;101332.38;5037433;28;20091;-74
2021/06/01 05:23:12;;;;;;;25.92;20.20;;;;;;;25.44;36.51;101328.78;5036885;28;20112;-74
2021/06/01 05:25:38;;;;;;;28.35;20.05;;;;;;;25.49;36.19;101329.59;5036833;28;20475;-74
2021/06/01 05:28:05;;;;;;;24.33;20.40;;;;;;;25.56;36.28;101321.97;5054733;28;20028;-74
2021/06/01 05:30:38;;;;;;;25.08;19.08;;;;;;;25.66;36.36;101323.97;5054645;28;20033;-75
2021/06/01 05:33:24;;;;;;;27.15;19.38;;;;;;;25.71;36.13;101331.16;5036698;28;20021;-74
2021/06/01 05:35:53;;;;;;;30.10;18.15;;;;;;;25.68;36.22;101329.16;5036716;28;20494;-74
2021/06/01 05:38:30;;;;;;;28.27;19.33;;;;;;;25.68;36.76;101335.53;5036764;28;20083;-74
2021/06/01 05:40:56;;;;;;;25.08;19.33;;;;;;;25.70;36.24;101337.97;5055001;28;20021;-74
2021/06/01 05:43:22;;;;;;;26.70;19.10;;;;;;;25.80;36.14;101337.16;5053817;28;20032;-74
2021/06/01 05:45:48;;;;;;;29.50;19.40;;;;;;;25.85;36.24;101339.56;5054032;28;20017;-74
2021/06/01 05:48:14;;;;;;;24.88;19.33;;;;;;;26.05;36.26;101337.09;5053604;28;20121;-74
2021/06/01 05:50:41;;;;;;;28.75;20.25;;;;;;;26.02;36.19;101337.13;5053619;28;20419;-73
2021/06/01 05:53:08;;;;;;;31.65;20.45;;;;;;;26.09;36.19;101328.69;5053730;28;20021;-74
2021/06/01 05:55:35;;;;;;;22.58;18.92;;;;;;;26.24;36.26;101325.44;5053628;28;20021;-74
2021/06/01 05:58:01;;;;;;;22.73;17.75;;;;;;;26.39;35.99;101331.81;5053468;28;20033;-74
2021/06/01 06:00:29;;;;;;;24.90;19.17;;;;;;;26.47;35.86;101322.16;5053383;28;20105;-74
2021/06/01 06:02:55;;;;;;;26.75;19.98;;;;;;;26.49;35.97;101318.94;5054314;28;20111;-74
2021/06/01 06:05:21;;;;;;;22.42;20.00;;;;;;;26.63;35.95;101318.06;5054101;28;20028;-74
2021/06/01 06:07:46;;;;;;;26.05;17.92;;;;;;;26.65;36.16;101319.25;5053976;28;20112;-73
2021/06/01 06:10:13;;;;;;;29.15;18.60;;;;;;;26.88;35.61;101306.69;5036046;28;20393;-73
2021/06/01 06:12:39;;;;;;;34.70;20.63;;;;;;;26.86;35.82;101329.53;5035929;28;20112;-74
2021/06/01 06:15:10;;;;;;;30.00;19.08;;;;;;;26.87;35.88;101327.53;5052868;28;20035;-75
2021/06/01 06:17:43;;;;;;;24.73;19.48;;;;;;;26.94;35.98;101328.28;5046541;28;20448;-75
2021/06/01 06:20:15;;;;;;;28.90;19.35;;;;;;;27.05;35.66;101333.81;5043221;28;20013;-75
2021/06/01 06:22:46;;;;;;;26.70;19.65;;;;;;;27.24;35.36;101329.69;5045737;28;20425;-74
2021/06/01 06:25:12;;;;;;;27.20;19.45;;;;;;;27.29;35.51;101323.63;5048811;28;20088;-76
2021/06/01 06:27:39;;;;;;;23.77;19.25;;;;;;;27.38;35.23;101326.75;5041959;28;20483;-77
2021/06/01 06:30:11;;;;;;;22.65;18.25;;;;;;;27.21;35.26;101322.09;5039182;28;20121;-77
2021/06/01 06:32:38;;;;;;;25.30;17.98;;;;;;;27.29;35.23;101329.25;5043735;28;20034;-74
2021/06/01 06:35:07;;;;;;;26.88;17.42;;;;;;;27.57;34.62;101326.16;5041805;28;20108;-75
2021/06/01 06:37:33;;;;;;;21.13;17.23;;;;;;;27.47;34.69;101331.88;5032919;28;20061;-73
2021/06/01 06:40:06;;;;;;;27.90;19.33;;;;;;;27.45;34.69;101328.72;5015197;28;20029;-74
2021/06/01 06:42:33;;;;;;;19.98;16.67;;;;;;;27.53;34.65;101319.81;5015094;28;20032;-74
2021/06/01 06:44:59;;;;;;;33.10;18.25;;;;;;;27.65;34.40;101324.88;5033140;28;20029;-74
2021/06/01 06:50:07;;;;;;;29.02;18.08;;;;;;;27.61;34.50;101321.31;5042246;28;20476;-75
2021/06/01 06:52:34;;;;;;;27.50;18.13;;;;;;;27.72;34.37;101318.44;5046725;28;20055;-74
2021/06/01 06:55:00;;;;;;;25.15;16.95;;;;;;;27.71;34.49;101325.25;5051148;28;20047;-74
2021/06/01 06:57:25;;;;;;;24.42;17.38;;;;;;;27.80;34.55;101324.75;5051952;28;20029;-74
2021/06/01 06:59:51;;;;;;;21.27;17.08;;;;;;;27.94;33.96;101330.22;5051862;28;20021;-74
2021/06/01 07:02:17;;;;;;;26.50;17.33;;;;;;;27.94;34.14;101330.22;5051906;28;20489;-75
2021/06/01 07:04:43;;;;;;;21.55;17.40;;;;;;;28.01;33.80;101337.78;5052257;28;20025;-73
2021/06/01 07:07:08;;;;;;;18.17;16.00;;;;;;;28.02;33.76;101345.00;5052771;28;20429;-74
2021/06/01 07:09:38;;;;;;;22.55;17.15;;;;;;;28.03;33.92;101338.94;5052512;28;20033;-73
2021/06/01 07:12:04;;;;;;;22.88;16.98;;;;;;;28.10;33.69;101335.25;5045611;28;20033;-74
2021/06/01 07:14:58;;;;;;;22.52;15.77;;;;;;;28.02;33.79;101348.59;5019328;28;20435;-74
2021/06/01 07:17:25;;;;;;;26.08;17.23;;;;;;;28.17;33.70;101347.22;5032427;28;20049;-74
2021/06/01 07:19:55;;;;;;;29.02;17.67;;;;;;;28.06;33.71;101337.34;5045919;28;20364;-74
2021/06/01 07:22:20;;;;;;;23.75;16.63;;;;;;;28.13;33.74;101335.25;5051600;28;20410;-74
2021/06/01 07:24:47;;;;;;;21.65;15.32;;;;;;;28.20;33.88;101335.16;5051456;28;20028;-74
2021/06/01 07:27:13;;;;;;;28.58;16.65;;;;;;;28.07;34.33;101342.53;5048712;28;20070;-74
2021/06/01 07:29:38;;;;;;;21.38;15.63;;;;;;;28.29;33.64;101345.09;5051471;28;20021;-74
2021/06/01 07:32:04;;;;;;;26.15;17.20;;;;;;;28.32;33.70;101347.88;5051570;28;20025;-74
2021/06/01 07:34:30;;;;;;;25.50;16.00;;;;;;;28.38;33.62;101345.41;5051455;28;20108;-74
2021/06/01 07:36:56;;;;;;;28.88;17.80;;;;;;;28.50;33.46;101349.69;5044755;28;20105;-74
2021/06/01 07:39:21;;;;;;;25.70;16.00;;;;;;;28.46;33.62;101352.50;5040754;28;20049;-75
2021/06/01 07:41:47;;;;;;;23.20;16.55;;;;;;;28.63;33.51;101354.28;5033932;28;20064;-74
2021/06/01 07:44:13;;;;;;;25.70;17.17;;;;;;;28.57;33.25;101353.19;5034166;28;21068;-74
2021/06/01 07:46:39;;;;;;;26.27;17.58;;;;;;;28.61;33.35;101351.09;5034986;28;20156;-74
2021/06/01 07:49:05;;;;;;;25.88;16.10;;;;;;;28.63;33.38;101351.47;5034486;28;20180;-74
2021/06/01 07:51:31;;;;;;;26.60;17.13;;;;;;;28.73;33.30;101350.53;5036011;28;20534;-75
2021/06/01 07:54:03;;;;;;;25.63;17.75;;;;;;;28.79;33.18;101353.66;5039019;28;20032;-74
2021/06/01 07:56:30;;;;;;;22.98;16.90;;;;;;;28.99;32.73;101353.81;5051339;28;20082;-75
2021/06/01 07:58:55;;;;;;;22.90;17.08;;;;;;;28.95;33.04;101362.31;5051212;28;20021;-74
2021/06/01 08:01:21;;;;;;;28.60;16.90;;;;;;;29.06;32.69;101350.09;5051405;28;20029;-74
2021/06/01 08:03:47;;;;;;;18.45;16.30;;;;;;;29.18;32.65;101347.50;5049626;28;20034;-74
2021/06/01 08:06:13;;;;;;;23.10;16.75;;;;;;;29.21;32.44;101357.09;5042640;28;20082;-74
2021/06/01 08:08:39;;;;;;;22.42;16.25;;;;;;;29.18;32.79;101358.75;5046198;28;20485;-75
2021/06/01 08:11:05;;;;;;;22.90;16.15;;;;;;;29.20;32.62;101361.13;5046748;28;20040;-74
2021/06/01 08:13:31;;;;;;;25.35;15.00;;;;;;;29.32;32.37;101365.34;5048219;28;20033;-75
2021/06/01 08:15:58;;;;;;;28.20;17.17;;;;;;;29.13;32.90;101362.03;5007717;28;20410;-74
2021/06/01 08:18:26;;;;;;;27.92;16.50;;;;;;;29.27;32.26;101344.91;5043830;28;20046;-74
2021/06/01 08:20:57;;;;;;;19.75;14.70;;;;;;;29.22;32.63;101345.41;5040490;28;20475;-73
2021/06/01 08:23:23;;;;;;;17.48;14.25;;;;;;;29.33;32.34;101331.16;5035509;28;20029;-74
2021/06/01 08:25:49;;;;;;;38.25;17.08;;;;;;;29.36;32.38;101344.38;5035403;28;20018;-74
2021/06/01 08:28:14;;;;;;;18.27;14.05;;;;;;;29.58;31.79;101342.00;5035794;28;20112;-74
2021/06/01 08:30:40;;;;;;;24.50;15.10;;;;;;;29.67;31.67;101345.06;5038809;28;20095;-74
2021/06/01 08:33:05;;;;;;;18.33;13.95;;;;;;;29.78;31.52;101345.66;5043532;28;20021;-75
2021/06/01 08:35:31;;;;;;;16.58;14.73;;;;;;;29.84;31.39;101348.75;5043832;28;20524;-74
2021/06/01 08:37:57;;;;;;;20.77;13.05;;;;;;;29.86;31.45;101343.50;5045205;28;20037;-74
2021/06/01 08:40:23;;;;;;;16.38;13.77;;;;;;;29.82;31.84;101346.38;5044320;28;20463;-74
2021/06/01 08:42:50;;;;;;;22.30;14.40;;;;;;;29.86;31.55;101356.81;5044161;28;20048;-74
2021/06/01 08:45:16;;;;;;;18.60;13.43;;;;;;;29.90;31.47;101365.97;5044537;28;20058;-73
2021/06/01 08:47:42;;;;;;;18.55;14.60;;;;;;;29.89;31.74;101350.28;5044177;28;20037;-74
2021/06/01 08:50:10;;;;;;;19.95;13.93;;;;;;;30.18;31.23;101342.91;5025835;28;20032;-75
2021/06/01 08:52:36;;;;;;;18.80;13.68;;;;;;;30.32;30.99;101351.06;5046074;28;20071;-75
2021/06/01 08:55:04;;;;;;;25.52;15.43;;;;;;;30.30;31.06;101349.88;5026669;28;20033;-74
2021/06/01 08:57:29;;;;;;;21.42;14.02;;;;;;;30.33;30.83;101349.03;5019698;28;20029;-75
2021/06/01 08:59:55;;;;;;;19.83;14.45;;;;;;;30.21;31.34;101344.84;5035165;28;20499;-74
2021/06/01 09:02:24;;;;;;;21.63;13.15;;;;;;;30.18;31.54;101348.53;5034957;28;20060;-74
2021/06/01 09:04:59;;;;;;;17.40;13.53;;;;;;;30.34;31.00;101359.88;5017492;28;20036;-76
2021/06/01 09:08:11;;;;;;;26.10;13.45;;;;;;;30.19;30.75;101352.16;5035082;28;20263;-74
2021/06/01 09:19:44;;;;;;;18.23;13.95;;;;;;;29.95;31.27;101328.84;5040599;28;20040;-74
2021/06/01 09:23:48;;;;;;;21.67;13.85;;;;;;;30.21;30.87;101342.03;5054616;28;20025;-74
2021/06/01 09:29:16;;;;;;;17.98;13.00;;;;;;;30.39;30.30;101341.66;5044615;28;20386;-74
2021/06/01 09:31:42;;;;;;;15.48;12.73;;;;;;;30.46;30.51;101349.19;5041761;28;20025;-74
2021/06/01 09:34:09;;;;;;;16.38;12.32;;;;;;;30.46;30.08;101335.88;5044698;28;20029;-74
2021/06/01 09:36:35;;;;;;;18.63;12.55;;;;;;;30.51;30.57;101334.56;5044004;28;20458;-74
2021/06/01 09:39:07;;;;;;;15.55;12.18;;;;;;;30.56;30.04;101343.28;5043618;28;20120;-75
2021/06/01 09:41:32;;;;;;;17.73;12.30;;;;;;;30.71;30.00;101345.84;5028103;28;20033;-74
2021/06/01 09:44:06;;;;;;;17.17;12.07;;;;;;;30.68;30.01;101336.19;5045194;28;20033;-74
2021/06/01 09:46:52;;;;;;;17.67;12.43;;;;;;;30.93;29.94;101350.53;5024270;28;20024;-75
2021/06/01 09:49:17;;;;;;;16.55;12.43;;;;;;;30.87;29.83;101351.50;5057916;28;20463;-75
2021/06/01 09:51:49;;;;;;;16.77;12.60;;;;;;;30.74;29.31;101361.88;5024720;28;20104;-74
2021/06/01 09:54:35;;;;;;;23.63;12.77;;;;;;;30.67;29.71;101345.91;5044134;28;20016;-73
2021/06/01 09:57:17;;;;;;;14.07;12.07;;;;;;;30.37;30.27;101347.72;5026299;28;20033;-74
2021/06/01 10:00:16;;;;;;;15.13;11.38;;;;;;;30.74;29.38;101345.75;5044143;28;20338;-73
2021/06/01 10:02:45;;;;;;;14.75;11.63;;;;;;;30.65;29.29;101356.81;5043978;28;20024;-74
2021/06/01 10:05:15;;;;;;;20.65;12.20;;;;;;;30.74;29.24;101357.03;5037331;28;20033;-74
2021/06/01 10:07:42;;;;;;;15.35;12.02;;;;;;;30.74;29.82;101361.88;5020942;28;20103;-74
2021/06/01 10:10:13;;;;;;;14.90;10.82;;;;;;;30.90;29.52;101362.69;5035502;28;20021;-74
2021/06/01 10:12:39;;;;;;;14.07;10.65;;;;;;;30.90;29.76;101350.59;5023405;28;20032;-73
2021/06/01 10:15:05;;;;;;;13.77;11.30;;;;;;;31.11;28.96;101343.66;5047556;28;20024;-73
2021/06/01 10:17:32;;;;;;;14.93;10.40;;;;;;;31.10;29.19;101342.09;5043560;28;20071;-74
2021/06/01 10:19:57;;;;;;;17.63;10.95;;;;;;;31.18;29.23;101338.63;5027048;28;20029;-73
2021/06/01 10:22:23;;;;;;;13.15;9.73;;;;;;;31.20;28.71;101335.38;5028163;28;20044;-74
2021/06/01 10:24:49;;;;;;;12.57;9.80;;;;;;;31.01;29.04;101314.47;5046821;28;20028;-77
2021/06/01 10:27:14;;;;;;;14.20;10.98;;;;;;;31.07;28.82;101309.91;5051962;28;20476;-74
2021/06/01 10:29:40;;;;;;;14.15;10.55;;;;;;;30.80;29.33;101327.06;5052367;28;20036;-74
2021/06/01 10:32:06;;;;;;;10.80;9.05;;;;;;;30.79;29.34;101328.31;5052210;28;20120;-74
2021/06/01 10:34:33;;;;;;;14.77;9.65;;;;;;;30.79;29.12;101330.31;5034373;28;20029;-74
2021/06/01 10:56:03;;;;;;;16.30;9.77;;;;;;;31.17;29.07;101333.44;5044238;28;20072;-74
2021/06/01 10:58:40;;;;;;;10.85;8.75;;;;;;;31.20;28.69;101329.72;5045920;28;20110;-74
2021/06/01 11:04:31;;;;;;;9.35;7.88;;;;;;;31.42;28.47;101344.13;5050887;28;20040;-74
2021/06/01 11:09:34;;;;;;;17.25;9.95;;;;;;;31.40;28.26;101344.56;5051468;28;20066;-79
2021/06/01 11:12:19;;;;;;;13.05;8.55;;;;;;;31.34;28.21;101349.16;5033776;28;20025;-80
2021/06/01 11:14:50;;;;;;;16.35;8.70;;;;;;;31.52;27.32;101350.75;5051454;28;20536;-79
2021/06/01 11:17:35;;;;;;;11.85;8.32;;;;;;;31.56;26.66;101323.19;5036701;28;20041;-79
2021/06/01 11:20:39;;;;;;;20.10;10.15;;;;;;;31.54;26.71;101325.69;5031069;28;20049;-79
2021/06/01 11:33:53;;;;;;;9.95;7.70;;;;;;;31.70;26.47;101320.00;5052939;28;20074;-79
2021/06/01 11:36:20;;;;;;;10.15;7.63;;;;;;;31.49;26.74;101319.31;5053188;28;20404;-93
2021/06/01 11:38:57;;;;;;;14.48;7.90;;;;;;;31.54;26.51;101320.03;5052608;28;20039;-79
2021/06/01 11:44:20;;;;;;;9.52;7.70;;;;;;;31.83;25.33;101311.59;5011507;28;20521;-79
2021/06/01 11:46:52;;;;;;;9.77;7.50;;;;;;;31.70;25.86;101323.59;5023538;28;20033;-79
2021/06/01 11:52:02;;;;;;;11.93;7.38;;;;;;;32.00;26.09;101330.09;5033094;28;20032;-79
2021/06/01 11:54:28;;;;;;;9.77;7.05;;;;;;;32.20;25.81;101325.06;5020008;28;20025;-79
2021/06/01 11:57:05;;;;;;;17.77;8.93;;;;;;;32.11;25.30;101322.06;5052586;28;20036;-79
2021/06/01 12:02:39;;;;;;;16.00;8.20;;;;;;;32.02;25.61;101327.59;5052769;28;20036;-94
2021/06/01 12:18:37;;;;;;;11.70;7.28;;;;;;;32.70;25.75;101317.91;5052475;28;20071;-79
2021/06/01 12:21:08;;;;;;;8.00;6.67;;;;;;;32.48;25.40;101317.78;5034543;28;20025;-79
2021/06/01 12:23:37;;;;;;;11.70;7.30;;;;;;;32.66;25.35;101313.63;5034476;28;20028;-79
2021/06/01 12:26:23;;;;;;;11.65;6.13;;;;;;;31.85;26.40;101309.91;5052427;28;20483;-80
2021/06/01 13:12:22;;;;;;;8.88;7.57;;;;;;;31.28;25.86;101307.78;5016390;28;20468;-79
2021/06/01 13:39:45;;;;;;;13.73;9.20;;;;;;;32.72;24.79;101291.97;5039988;28;20033;-85
2021/06/01 13:48:25;;;;;;;9.50;7.28;;;;;;;33.34;24.62;101289.56;5054515;28;20060;-78